sensor_id;sensor_type;location;lat;lon;timestamp;pressure;altitude;pressure_sealevel;temperature;humidity
55315;BME280;41619;42.816;23.226;2023-02-07T00:00:29;96901.94;;;-3.49;51.91
55315;BME280;41619;42.816;23.226;2023-02-07T00:02:55;96905.19;;;-3.47;52.18
55315;BME280;41619;42.816;23.226;2023-02-07T00:05:22;96907.59;;;-3.45;52.16
55315;BME280;41619;42.816;23.226;2023-02-07T00:07:48;96910.03;;;-3.44;52.08
55315;BME280;41619;42.816;23.226;2023-02-07T00:10:14;96913.53;;;-3.43;52.33
55315;BME280;41619;42.816;23.226;2023-02-07T00:12:39;96910.59;;;-3.42;52.28
55315;BME280;41619;42.816;23.226;2023-02-07T00:15:05;96918.16;;;-3.39;52.20
55315;BME280;41619;42.816;23.226;2023-02-07T00:17:31;96921.88;;;-3.40;52.09
55315;BME280;41619;42.816;23.226;2023-02-07T00:19:56;96915.97;;;-3.42;52.67
55315;BME280;41619;42.816;23.226;2023-02-07T00:22:22;96928.28;;;-3.41;52.62
55315;BME280;41619;42.816;23.226;2023-02-07T00:24:47;96931.22;;;-3.42;52.58
55315;BME280;41619;42.816;23.226;2023-02-07T00:27:13;96935.28;;;-3.40;52.41
55315;BME280;41619;42.816;23.226;2023-02-07T00:29:38;96937.94;;;-3.40;52.70
55315;BME280;41619;42.816;23.226;2023-02-07T00:32:03;96939.81;;;-3.40;52.15
55315;BME280;41619;42.816;23.226;2023-02-07T00:34:29;96934.47;;;-3.40;52.60
55315;BME280;41619;42.816;23.226;2023-02-07T00:36:56;96934.47;;;-3.40;52.68
55315;BME280;41619;42.816;23.226;2023-02-07T00:39:21;96936.31;;;-3.41;52.66
55315;BME280;41619;42.816;23.226;2023-02-07T00:41:47;96939.00;;;-3.41;52.33
55315;BME280;41619;42.816;23.226;2023-02-07T00:44:12;96941.69;;;-3.41;52.63
55315;BME280;41619;42.816;23.226;2023-02-07T00:46:38;96937.94;;;-3.40;53.01
55315;BME280;41619;42.816;23.226;2023-02-07T00:49:04;96940.38;;;-3.38;52.49
55315;BME280;41619;42.816;23.226;2023-02-07T00:51:30;96942.81;;;-3.37;52.33
55315;BME280;41619;42.816;23.226;2023-02-07T00:53:56;96935.03;;;-3.38;52.42
55315;BME280;41619;42.816;23.226;2023-02-07T00:56:23;96937.69;;;-3.38;52.66
55315;BME280;41619;42.816;23.226;2023-02-07T00:58:49;96946.31;;;-3.36;52.73
55315;BME280;41619;42.816;23.226;2023-02-07T01:01:15;96940.94;;;-3.36;52.58
55315;BME280;41619;42.816;23.226;2023-02-07T01:03:41;96934.78;;;-3.37;52.24
55315;BME280;41619;42.816;23.226;2023-02-07T01:06:07;96934.22;;;-3.39;52.38
55315;BME280;41619;42.816;23.226;2023-02-07T01:08:33;96932.59;;;-3.40;52.92
55315;BME280;41619;42.816;23.226;2023-02-07T01:11:04;96935.03;;;-3.38;52.85
55315;BME280;41619;42.816;23.226;2023-02-07T01:13:30;96929.66;;;-3.38;52.68
55315;BME280;41619;42.816;23.226;2023-02-07T01:15:56;96927.00;;;-3.38;52.64
55315;BME280;41619;42.816;23.226;2023-02-07T01:18:21;96921.88;;;-3.40;52.92
55315;BME280;41619;42.816;23.226;2023-02-07T01:20:47;96928.28;;;-3.41;52.55
55315;BME280;41619;42.816;23.226;2023-02-07T01:23:13;96926.66;;;-3.42;52.77
55315;BME280;41619;42.816;23.226;2023-02-07T01:25:39;96919.13;;;-3.45;52.84
55315;BME280;41619;42.816;23.226;2023-02-07T01:28:05;96918.81;;;-3.48;52.52
55315;BME280;41619;42.816;23.226;2023-02-07T01:30:31;96917.19;;;-3.49;52.88
55315;BME280;41619;42.816;23.226;2023-02-07T01:32:56;96920.66;;;-3.49;52.68
55315;BME280;41619;42.816;23.226;2023-02-07T01:35:22;96913.22;;;-3.47;52.49
55315;BME280;41619;42.816;23.226;2023-02-07T01:37:47;96919.84;;;-3.49;52.63
55315;BME280;41619;42.816;23.226;2023-02-07T01:40:13;96917.41;;;-3.51;53.23
55315;BME280;41619;42.816;23.226;2023-02-07T01:42:39;96915.81;;;-3.52;52.98
55315;BME280;41619;42.816;23.226;2023-02-07T01:47:56;96917.88;;;-3.54;52.87
55315;BME280;41619;42.816;23.226;2023-02-07T01:50:24;96913.34;;;-3.53;52.80
55315;BME280;41619;42.816;23.226;2023-02-07T01:52:52;96915.19;;;-3.54;52.59
55315;BME280;41619;42.816;23.226;2023-02-07T01:55:22;96918.94;;;-3.55;52.79
55315;BME280;41619;42.816;23.226;2023-02-07T01:57:48;96918.13;;;-3.55;53.02
55315;BME280;41619;42.816;23.226;2023-02-07T02:00:15;96919.16;;;-3.56;53.10
55315;BME280;41619;42.816;23.226;2023-02-07T02:02:41;96915.44;;;-3.55;52.81
55315;BME280;41619;42.816;23.226;2023-02-07T02:05:08;96912.19;;;-3.57;53.17
55315;BME280;41619;42.816;23.226;2023-02-07T02:07:36;96911.63;;;-3.59;52.84
55315;BME280;41619;42.816;23.226;2023-02-07T02:10:08;96910.50;;;-3.63;52.54
55315;BME280;41619;42.816;23.226;2023-02-07T02:18:25;96916.56;;;-3.68;53.43
55315;BME280;41619;42.816;23.226;2023-02-07T02:32:40;96922.84;;;-3.74;53.20
55315;BME280;41619;42.816;23.226;2023-02-07T02:35:16;96927.16;;;-3.73;53.20
55315;BME280;41619;42.816;23.226;2023-02-07T02:40:55;96935.78;;;-3.71;53.51
55315;BME280;41619;42.816;23.226;2023-02-07T02:43:30;96933.09;;;-3.71;53.09
55315;BME280;41619;42.816;23.226;2023-02-07T02:46:06;96936.59;;;-3.71;53.31
55315;BME280;41619;42.816;23.226;2023-02-07T02:48:33;96933.91;;;-3.71;53.32
55315;BME280;41619;42.816;23.226;2023-02-07T02:50:59;96940.53;;;-3.73;53.29
55315;BME280;41619;42.816;23.226;2023-02-07T02:53:25;96931.44;;;-3.72;53.46
55315;BME280;41619;42.816;23.226;2023-02-07T03:01:26;96931.25;;;-3.71;53.02
55315;BME280;41619;42.816;23.226;2023-02-07T03:12:06;96937.03;;;-3.74;53.05
55315;BME280;41619;42.816;23.226;2023-02-07T03:14:52;96935.19;;;-3.73;53.67
55315;BME280;41619;42.816;23.226;2023-02-07T03:17:31;96930.88;;;-3.74;53.90
55315;BME280;41619;42.816;23.226;2023-02-07T03:20:08;96933.56;;;-3.74;54.32
55315;BME280;41619;42.816;23.226;2023-02-07T03:22:39;96934.84;;;-3.77;54.29
55315;BME280;41619;42.816;23.226;2023-02-07T03:25:08;96933.47;;;-3.79;53.89
55315;BME280;41619;42.816;23.226;2023-02-07T03:27:35;96938.00;;;-3.80;54.28
55315;BME280;41619;42.816;23.226;2023-02-07T03:30:05;96934.75;;;-3.82;54.06
55315;BME280;41619;42.816;23.226;2023-02-07T03:32:34;96933.94;;;-3.82;54.69
55315;BME280;41619;42.816;23.226;2023-02-07T03:35:09;96934.44;;;-3.85;54.62
55315;BME280;41619;42.816;23.226;2023-02-07T03:37:43;96937.09;;;-3.85;54.76
55315;BME280;41619;42.816;23.226;2023-02-07T03:40:11;96930.94;;;-3.86;54.85
55315;BME280;41619;42.816;23.226;2023-02-07T03:42:45;96929.88;;;-3.85;54.81
55315;BME280;41619;42.816;23.226;2023-02-07T03:45:17;96930.13;;;-3.86;55.05
55315;BME280;41619;42.816;23.226;2023-02-07T03:47:43;96939.19;;;-3.87;55.06
55315;BME280;41619;42.816;23.226;2023-02-07T03:50:08;96935.72;;;-3.88;55.01
55315;BME280;41619;42.816;23.226;2023-02-07T03:52:35;96937.34;;;-3.87;55.10
55315;BME280;41619;42.816;23.226;2023-02-07T03:55:00;96939.19;;;-3.87;55.29
55315;BME280;41619;42.816;23.226;2023-02-07T03:57:25;96931.06;;;-3.92;55.19
55315;BME280;41619;42.816;23.226;2023-02-07T03:59:51;96931.88;;;-3.92;55.45
55315;BME280;41619;42.816;23.226;2023-02-07T04:02:16;96936.53;;;-3.87;54.85
55315;BME280;41619;42.816;23.226;2023-02-07T04:04:42;96929.06;;;-3.85;55.50
55315;BME280;41619;42.816;23.226;2023-02-07T04:07:08;96930.13;;;-3.86;55.53
55315;BME280;41619;42.816;23.226;2023-02-07T04:09:34;96926.97;;;-3.83;55.42
55315;BME280;41619;42.816;23.226;2023-02-07T04:11:59;96928.59;;;-3.82;55.34
55315;BME280;41619;42.816;23.226;2023-02-07T04:14:25;96930.22;;;-3.81;55.30
55315;BME280;41619;42.816;23.226;2023-02-07T04:16:50;96921.38;;;-3.82;55.72
55315;BME280;41619;42.816;23.226;2023-02-07T04:19:16;96928.59;;;-3.82;55.73
55315;BME280;41619;42.816;23.226;2023-02-07T04:21:41;96932.88;;;-3.81;55.58
55315;BME280;41619;42.816;23.226;2023-02-07T04:24:07;96928.03;;;-3.84;55.48
55315;BME280;41619;42.816;23.226;2023-02-07T04:26:33;96933.03;;;-3.88;55.73
55315;BME280;41619;42.816;23.226;2023-02-07T04:28:58;96936.41;;;-3.92;55.97
55315;BME280;41619;42.816;23.226;2023-02-07T04:31:23;96928.53;;;-3.99;55.99
55315;BME280;41619;42.816;23.226;2023-02-07T04:33:49;96928.66;;;-4.06;56.30
55315;BME280;41619;42.816;23.226;2023-02-07T04:36:14;96925.53;;;-4.14;56.33
55315;BME280;41619;42.816;23.226;2023-02-07T04:38:40;96935.66;;;-4.16;56.79
55315;BME280;41619;42.816;23.226;2023-02-07T04:41:05;96941.00;;;-4.16;56.56
55315;BME280;41619;42.816;23.226;2023-02-07T04:43:33;96944.97;;;-4.19;57.01
55315;BME280;41619;42.816;23.226;2023-02-07T04:45:59;96950.31;;;-4.19;57.11
55315;BME280;41619;42.816;23.226;2023-02-07T04:48:25;96953.56;;;-4.17;56.90
55315;BME280;41619;42.816;23.226;2023-02-07T04:50:50;96947.41;;;-4.17;57.37
55315;BME280;41619;42.816;23.226;2023-02-07T04:53:16;96957.28;;;-4.18;57.05
55315;BME280;41619;42.816;23.226;2023-02-07T04:55:41;96959.38;;;-4.20;57.21
55315;BME280;41619;42.816;23.226;2023-02-07T04:58:07;96960.66;;;-4.22;57.59
55315;BME280;41619;42.816;23.226;2023-02-07T05:00:33;96962.53;;;-4.23;57.92
55315;BME280;41619;42.816;23.226;2023-02-07T05:02:59;96959.53;;;-4.27;57.92
55315;BME280;41619;42.816;23.226;2023-02-07T05:05:25;96963.69;;;-4.31;57.65
55315;BME280;41619;42.816;23.226;2023-02-07T05:07:51;96959.28;;;-4.37;58.09
55315;BME280;41619;42.816;23.226;2023-02-07T05:10:16;96970.44;;;-4.40;58.50
55315;BME280;41619;42.816;23.226;2023-02-07T05:12:42;96963.47;;;-4.41;58.51
55315;BME280;41619;42.816;23.226;2023-02-07T05:15:07;96963.47;;;-4.41;58.88
55315;BME280;41619;42.816;23.226;2023-02-07T05:17:33;96966.84;;;-4.45;58.58
55315;BME280;41619;42.816;23.226;2023-02-07T05:20:00;96974.25;;;-4.47;58.69
55315;BME280;41619;42.816;23.226;2023-02-07T05:22:26;96970.78;;;-4.48;58.91
55315;BME280;41619;42.816;23.226;2023-02-07T05:24:51;96970.78;;;-4.48;58.62
55315;BME280;41619;42.816;23.226;2023-02-07T05:27:17;96974.50;;;-4.49;59.00
55315;BME280;41619;42.816;23.226;2023-02-07T05:29:42;96980.09;;;-4.50;58.66
55315;BME280;41619;42.816;23.226;2023-02-07T05:32:11;96994.72;;;-4.53;59.24
55315;BME280;41619;42.816;23.226;2023-02-07T05:34:56;96995.75;;;-4.54;58.80
55315;BME280;41619;42.816;23.226;2023-02-07T05:37:21;96999.00;;;-4.52;58.89
55315;BME280;41619;42.816;23.226;2023-02-07T05:39:46;96995.31;;;-4.51;58.92
55315;BME280;41619;42.816;23.226;2023-02-07T05:42:12;96999.59;;;-4.50;59.52
55315;BME280;41619;42.816;23.226;2023-02-07T05:44:37;97005.75;;;-4.49;59.20
55315;BME280;41619;42.816;23.226;2023-02-07T05:47:02;97004.47;;;-4.47;59.45
55315;BME280;41619;42.816;23.226;2023-02-07T05:49:28;97003.66;;;-4.47;59.77
55315;BME280;41619;42.816;23.226;2023-02-07T05:51:53;97006.34;;;-4.47;59.29
55315;BME280;41619;42.816;23.226;2023-02-07T05:54:19;97009.81;;;-4.47;59.14
55315;BME280;41619;42.816;23.226;2023-02-07T05:56:44;97009.63;;;-4.45;59.38
55315;BME280;41619;42.816;23.226;2023-02-07T05:59:09;97021.22;;;-4.51;59.61
55315;BME280;41619;42.816;23.226;2023-02-07T06:01:35;97021.22;;;-4.51;59.67
55315;BME280;41619;42.816;23.226;2023-02-07T06:04:00;97013.66;;;-4.54;59.81
55315;BME280;41619;42.816;23.226;2023-02-07T06:06:25;97017.16;;;-4.54;59.67
55315;BME280;41619;42.816;23.226;2023-02-07T06:08:51;97020.06;;;-4.55;59.40
55315;BME280;41619;42.816;23.226;2023-02-07T06:11:16;97020.28;;;-4.57;59.74
55315;BME280;41619;42.816;23.226;2023-02-07T06:13:41;97023.53;;;-4.55;59.47
55315;BME280;41619;42.816;23.226;2023-02-07T06:16:07;97017.97;;;-4.53;59.74
55315;BME280;41619;42.816;23.226;2023-02-07T06:18:35;97016.44;;;-4.49;60.07
55315;BME280;41619;42.816;23.226;2023-02-07T06:21:00;97022.38;;;-4.47;60.29
55315;BME280;41619;42.816;23.226;2023-02-07T06:23:26;97025.66;;;-4.45;60.12
55315;BME280;41619;42.816;23.226;2023-02-07T06:25:51;97018.44;;;-4.45;60.21
55315;BME280;41619;42.816;23.226;2023-02-07T06:28:16;97024.13;;;-4.41;60.00
55315;BME280;41619;42.816;23.226;2023-02-07T06:30:42;97019.59;;;-4.41;60.10
55315;BME280;41619;42.816;23.226;2023-02-07T06:33:07;97030.88;;;-4.39;60.05
55315;BME280;41619;42.816;23.226;2023-02-07T06:35:32;97035.16;;;-4.38;59.79
55315;BME280;41619;42.816;23.226;2023-02-07T06:37:58;97037.84;;;-4.38;60.11
55315;BME280;41619;42.816;23.226;2023-02-07T06:40:23;97035.75;;;-4.36;60.00
55315;BME280;41619;42.816;23.226;2023-02-07T06:42:49;97040.63;;;-4.33;60.40
55315;BME280;41619;42.816;23.226;2023-02-07T06:45:14;97040.97;;;-4.29;60.49
55315;BME280;41619;42.816;23.226;2023-02-07T06:47:40;97040.28;;;-4.24;60.43
55315;BME280;41619;42.816;23.226;2023-02-07T06:50:05;97040.63;;;-4.21;60.37
55315;BME280;41619;42.816;23.226;2023-02-07T06:52:30;97039.59;;;-4.20;60.02
55315;BME280;41619;42.816;23.226;2023-02-07T06:54:56;97042.72;;;-4.23;60.17
55315;BME280;41619;42.816;23.226;2023-02-07T06:57:21;97048.88;;;-4.22;60.10
55315;BME280;41619;42.816;23.226;2023-02-07T06:59:47;97035.53;;;-4.22;60.41
55315;BME280;41619;42.816;23.226;2023-02-07T07:02:12;97049.22;;;-4.19;60.35
55315;BME280;41619;42.816;23.226;2023-02-07T07:04:37;97044.22;;;-4.15;60.73
55315;BME280;41619;42.816;23.226;2023-02-07T07:07:03;97042.72;;;-4.11;60.82
55315;BME280;41619;42.816;23.226;2023-02-07T07:09:28;97041.78;;;-4.05;60.64
55315;BME280;41619;42.816;23.226;2023-02-07T07:11:54;97035.97;;;-4.02;60.46
55315;BME280;41619;42.816;23.226;2023-02-07T07:14:19;97038.66;;;-4.02;60.69
55315;BME280;41619;42.816;23.226;2023-02-07T07:16:45;97035.59;;;-3.94;60.18
55315;BME280;41619;42.816;23.226;2023-02-07T07:19:10;97041.66;;;-3.87;60.62
55315;BME280;41619;42.816;23.226;2023-02-07T07:21:36;97031.41;;;-3.78;60.54
55315;BME280;41619;42.816;23.226;2023-02-07T07:24:01;97031.38;;;-3.67;60.52
55315;BME280;41619;42.816;23.226;2023-02-07T07:26:27;97035.19;;;-3.51;60.15
55315;BME280;41619;42.816;23.226;2023-02-07T07:28:52;97034.53;;;-3.29;59.83
55315;BME280;41619;42.816;23.226;2023-02-07T07:31:22;97030.03;;;-3.12;59.55
55315;BME280;41619;42.816;23.226;2023-02-07T07:33:48;97024.97;;;-2.97;59.32
55315;BME280;41619;42.816;23.226;2023-02-07T07:36:13;97025.69;;;-2.85;59.21
55315;BME280;41619;42.816;23.226;2023-02-07T07:38:38;97028.47;;;-2.63;58.83
55315;BME280;41619;42.816;23.226;2023-02-07T07:41:04;97022.78;;;-2.50;58.37
55315;BME280;41619;42.816;23.226;2023-02-07T07:43:29;97032.63;;;-2.38;57.98
55315;BME280;41619;42.816;23.226;2023-02-07T07:45:56;97031.72;;;-2.27;58.03
55315;BME280;41619;42.816;23.226;2023-02-07T07:48:24;97036.44;;;-2.18;57.75
55315;BME280;41619;42.816;23.226;2023-02-07T07:50:49;97035.75;;;-2.08;57.29
55315;BME280;41619;42.816;23.226;2023-02-07T07:53:15;97036.16;;;-1.99;57.52
55315;BME280;41619;42.816;23.226;2023-02-07T07:55:47;97021.66;;;-0.89;57.01
55315;BME280;41619;42.816;23.226;2023-02-07T07:58:12;97018.59;;;1.59;54.52
55315;BME280;41619;42.816;23.226;2023-02-07T08:00:38;97019.66;;;1.94;52.42
55315;BME280;41619;42.816;23.226;2023-02-07T08:03:03;97016.38;;;2.17;51.60
55315;BME280;41619;42.816;23.226;2023-02-07T08:05:29;97017.66;;;2.40;51.73
55315;BME280;41619;42.816;23.226;2023-02-07T08:07:54;97021.53;;;2.08;52.02
55315;BME280;41619;42.816;23.226;2023-02-07T08:10:19;97021.28;;;1.64;52.51
55315;BME280;41619;42.816;23.226;2023-02-07T08:12:45;97018.53;;;1.18;52.67
55315;BME280;41619;42.816;23.226;2023-02-07T08:15:10;97017.88;;;0.71;53.06
55315;BME280;41619;42.816;23.226;2023-02-07T08:17:38;97018.22;;;0.32;54.25
55315;BME280;41619;42.816;23.226;2023-02-07T08:20:03;97023.25;;;0.13;54.72
55315;BME280;41619;42.816;23.226;2023-02-07T08:22:29;97026.06;;;-0.09;54.54
55315;BME280;41619;42.816;23.226;2023-02-07T08:24:55;97016.66;;;-0.43;54.91
55315;BME280;41619;42.816;23.226;2023-02-07T08:27:21;97028.53;;;-0.71;54.63
55315;BME280;41619;42.816;23.226;2023-02-07T08:29:46;97022.59;;;-1.00;55.06
55315;BME280;41619;42.816;23.226;2023-02-07T08:32:11;97018.50;;;-1.08;55.24
55315;BME280;41619;42.816;23.226;2023-02-07T08:34:38;97017.19;;;-1.05;55.46
55315;BME280;41619;42.816;23.226;2023-02-07T08:37:05;97014.31;;;-0.94;55.11
55315;BME280;41619;42.816;23.226;2023-02-07T08:39:31;97022.53;;;-0.51;55.32
55315;BME280;41619;42.816;23.226;2023-02-07T08:41:56;97016.13;;;0.39;54.02
55315;BME280;41619;42.816;23.226;2023-02-07T08:44:22;97018.78;;;1.07;53.29
55315;BME280;41619;42.816;23.226;2023-02-07T08:46:47;97010.22;;;1.71;52.11
55315;BME280;41619;42.816;23.226;2023-02-07T08:49:13;97017.16;;;2.33;51.39
55315;BME280;41619;42.816;23.226;2023-02-07T08:51:38;97006.31;;;2.48;50.87
55315;BME280;41619;42.816;23.226;2023-02-07T08:54:04;97012.13;;;2.76;50.20
55315;BME280;41619;42.816;23.226;2023-02-07T08:56:30;97006.63;;;3.01;49.62
55315;BME280;41619;42.816;23.226;2023-02-07T08:58:55;97015.81;;;3.00;49.29
55315;BME280;41619;42.816;23.226;2023-02-07T09:01:20;97016.06;;;3.03;49.46
55315;BME280;41619;42.816;23.226;2023-02-07T09:03:46;97010.44;;;2.90;48.95
55315;BME280;41619;42.816;23.226;2023-02-07T09:06:11;97026.97;;;2.78;49.58
55315;BME280;41619;42.816;23.226;2023-02-07T09:08:37;97016.56;;;2.51;49.34
55315;BME280;41619;42.816;23.226;2023-02-07T09:11:03;97018.31;;;1.91;49.28
55315;BME280;41619;42.816;23.226;2023-02-07T09:13:28;97024.22;;;1.17;49.99
55315;BME280;41619;42.816;23.226;2023-02-07T09:15:55;97025.56;;;0.42;50.79
55315;BME280;41619;42.816;23.226;2023-02-07T09:18:21;97026.72;;;0.04;51.74
55315;BME280;41619;42.816;23.226;2023-02-07T09:20:46;97021.91;;;-0.26;52.14
55315;BME280;41619;42.816;23.226;2023-02-07T09:23:12;97030.13;;;-0.43;52.43
55315;BME280;41619;42.816;23.226;2023-02-07T09:25:48;97030.63;;;-0.46;52.60
55315;BME280;41619;42.816;23.226;2023-02-07T09:28:16;97026.56;;;-0.54;52.61
55315;BME280;41619;42.816;23.226;2023-02-07T09:30:42;97020.28;;;-0.59;53.11
55315;BME280;41619;42.816;23.226;2023-02-07T09:33:09;97024.72;;;-0.75;53.44
55315;BME280;41619;42.816;23.226;2023-02-07T09:35:40;97024.69;;;-1.07;53.75
55315;BME280;41619;42.816;23.226;2023-02-07T09:38:07;97029.34;;;-1.25;53.86
55315;BME280;41619;42.816;23.226;2023-02-07T09:40:34;97016.94;;;-1.04;53.91
55315;BME280;41619;42.816;23.226;2023-02-07T09:43:21;97016.53;;;-0.90;53.70
55315;BME280;41619;42.816;23.226;2023-02-07T09:45:53;97007.69;;;-0.86;53.41
55315;BME280;41619;42.816;23.226;2023-02-07T09:48:47;97015.22;;;-0.88;53.50
55315;BME280;41619;42.816;23.226;2023-02-07T09:51:18;97008.28;;;-1.11;53.84
55315;BME280;41619;42.816;23.226;2023-02-07T09:53:52;97012.50;;;-1.15;53.93
55315;BME280;41619;42.816;23.226;2023-02-07T09:56:20;97007.53;;;-1.28;54.08
55315;BME280;41619;42.816;23.226;2023-02-07T09:59:08;97011.78;;;-1.32;54.63
55315;BME280;41619;42.816;23.226;2023-02-07T10:01:47;97009.31;;;-1.12;54.53
55315;BME280;41619;42.816;23.226;2023-02-07T10:06:46;96996.88;;;-0.64;54.21
55315;BME280;41619;42.816;23.226;2023-02-07T10:09:16;97002.09;;;-0.79;54.36
55315;BME280;41619;42.816;23.226;2023-02-07T10:25:05;96972.31;;;-0.41;54.03
55315;BME280;41619;42.816;23.226;2023-02-07T10:30:29;96961.81;;;0.68;51.85
55315;BME280;41619;42.816;23.226;2023-02-07T10:33:03;96962.69;;;0.94;51.49
55315;BME280;41619;42.816;23.226;2023-02-07T10:35:34;96958.91;;;0.89;50.94
55315;BME280;41619;42.816;23.226;2023-02-07T10:38:02;96956.78;;;1.02;50.78
55315;BME280;41619;42.816;23.226;2023-02-07T10:40:33;96947.88;;;1.21;51.10
55315;BME280;41619;42.816;23.226;2023-02-07T10:43:10;96945.19;;;1.42;50.11
55315;BME280;41619;42.816;23.226;2023-02-07T10:45:38;96945.72;;;1.74;50.41
55315;BME280;41619;42.816;23.226;2023-02-07T10:48:15;96944.28;;;2.07;49.50
55315;BME280;41619;42.816;23.226;2023-02-07T10:50:40;96950.69;;;2.32;49.85
55315;BME280;41619;42.816;23.226;2023-02-07T10:53:06;96936.31;;;2.47;49.80
55315;BME280;41619;42.816;23.226;2023-02-07T10:55:45;96933.69;;;2.21;49.69
55315;BME280;41619;42.816;23.226;2023-02-07T10:58:16;96933.00;;;1.85;50.29
55315;BME280;41619;42.816;23.226;2023-02-07T11:00:47;96931.41;;;1.48;50.05
55315;BME280;41619;42.816;23.226;2023-02-07T11:03:19;96928.72;;;0.98;50.19
55315;BME280;41619;42.816;23.226;2023-02-07T11:06:04;96927.31;;;0.59;50.93
55315;BME280;41619;42.816;23.226;2023-02-07T11:08:33;96921.59;;;0.46;51.31
55315;BME280;41619;42.816;23.226;2023-02-07T11:11:27;96921.56;;;0.36;51.39
55315;BME280;41619;42.816;23.226;2023-02-07T11:13:53;96926.66;;;0.27;51.29
55315;BME280;41619;42.816;23.226;2023-02-07T11:16:22;96921.84;;;0.34;51.58
55315;BME280;41619;42.816;23.226;2023-02-07T11:18:57;96919.31;;;1.20;50.31
55315;BME280;41619;42.816;23.226;2023-02-07T11:21:30;96912.34;;;2.30;49.06
55315;BME280;41619;42.816;23.226;2023-02-07T11:24:04;96913.66;;;2.42;47.98
55315;BME280;41619;42.816;23.226;2023-02-07T11:26:32;96904.66;;;1.77;47.49
55315;BME280;41619;42.816;23.226;2023-02-07T11:29:11;96912.28;;;1.19;48.03
55315;BME280;41619;42.816;23.226;2023-02-07T11:31:38;96906.06;;;0.78;48.46
55315;BME280;41619;42.816;23.226;2023-02-07T11:34:29;96911.91;;;0.45;49.37
55315;BME280;41619;42.816;23.226;2023-02-07T11:39:44;96906.41;;;0.09;49.73
55315;BME280;41619;42.816;23.226;2023-02-07T11:42:17;96905.31;;;0.05;49.86
55315;BME280;41619;42.816;23.226;2023-02-07T11:44:44;96901.84;;;0.15;50.38
55315;BME280;41619;42.816;23.226;2023-02-07T11:47:16;96890.28;;;0.19;50.07
55315;BME280;41619;42.816;23.226;2023-02-07T11:49:46;96887.09;;;0.33;50.03
55315;BME280;41619;42.816;23.226;2023-02-07T11:52:13;96878.00;;;0.59;49.59
55315;BME280;41619;42.816;23.226;2023-02-07T11:54:40;96890.41;;;0.65;49.40
55315;BME280;41619;42.816;23.226;2023-02-07T11:57:16;96886.31;;;0.47;48.90
55315;BME280;41619;42.816;23.226;2023-02-07T12:00:00;96891.66;;;0.22;49.02
55315;BME280;41619;42.816;23.226;2023-02-07T12:02:28;96889.44;;;0.14;49.27
55315;BME280;41619;42.816;23.226;2023-02-07T12:05:08;96888.63;;;0.13;49.65
55315;BME280;41619;42.816;23.226;2023-02-07T12:07:42;96884.84;;;0.04;48.76
55315;BME280;41619;42.816;23.226;2023-02-07T12:10:35;96892.41;;;0.12;48.78
55315;BME280;41619;42.816;23.226;2023-02-07T12:13:11;96877.06;;;0.18;49.24
55315;BME280;41619;42.816;23.226;2023-02-07T12:15:46;96874.97;;;0.30;48.72
55315;BME280;41619;42.816;23.226;2023-02-07T12:18:32;96871.50;;;0.55;48.58
55315;BME280;41619;42.816;23.226;2023-02-07T12:21:12;96862.69;;;0.95;48.56
55315;BME280;41619;42.816;23.226;2023-02-07T12:23:50;96861.00;;;1.45;47.66
55315;BME280;41619;42.816;23.226;2023-02-07T12:26:24;96859.56;;;1.83;46.98
55315;BME280;41619;42.816;23.226;2023-02-07T12:32:01;96872.94;;;2.19;46.21
55315;BME280;41619;42.816;23.226;2023-02-07T12:35:10;96868.44;;;1.99;46.69
55315;BME280;41619;42.816;23.226;2023-02-07T12:43:18;96869.47;;;2.03;46.61
55315;BME280;41619;42.816;23.226;2023-02-07T12:57:03;96856.91;;;2.82;45.19
55315;BME280;41619;42.816;23.226;2023-02-07T13:00:00;96858.03;;;2.76;45.10
55315;BME280;41619;42.816;23.226;2023-02-07T13:08:28;96857.34;;;2.94;44.60
55315;BME280;41619;42.816;23.226;2023-02-07T13:16:25;96853.34;;;2.47;44.37
55315;BME280;41619;42.816;23.226;2023-02-07T13:19:09;96853.97;;;2.34;44.69
55315;BME280;41619;42.816;23.226;2023-02-07T13:21:50;96850.16;;;2.35;45.16
55315;BME280;41619;42.816;23.226;2023-02-07T13:24:20;96852.81;;;2.45;45.23
55315;BME280;41619;42.816;23.226;2023-02-07T13:26:52;96848.41;;;2.59;44.62
55315;BME280;41619;42.816;23.226;2023-02-07T13:29:19;96852.13;;;2.68;44.52
55315;BME280;41619;42.816;23.226;2023-02-07T13:32:06;96849.38;;;2.73;44.31
55315;BME280;41619;42.816;23.226;2023-02-07T13:34:44;96847.66;;;2.88;44.00
55315;BME280;41619;42.816;23.226;2023-02-07T13:37:13;96851.88;;;3.04;43.70
55315;BME280;41619;42.816;23.226;2023-02-07T13:39:47;96850.44;;;3.12;43.54
55315;BME280;41619;42.816;23.226;2023-02-07T13:55:45;96846.41;;;2.75;43.32
55315;BME280;41619;42.816;23.226;2023-02-07T14:01:25;96849.13;;;2.31;43.32
55315;BME280;41619;42.816;23.226;2023-02-07T14:06:38;96849.09;;;1.61;44.30
55315;BME280;41619;42.816;23.226;2023-02-07T14:09:36;96847.44;;;1.75;44.34
55315;BME280;41619;42.816;23.226;2023-02-07T14:12:18;96853.31;;;1.98;44.41
55315;BME280;41619;42.816;23.226;2023-02-07T14:14:44;96853.56;;;2.06;43.97
55315;BME280;41619;42.816;23.226;2023-02-07T14:28:14;96862.13;;;1.18;44.70
55315;BME280;41619;42.816;23.226;2023-02-07T14:41:09;96868.59;;;0.77;45.83
55315;BME280;41619;42.816;23.226;2023-02-07T14:43:51;96862.66;;;0.70;46.31
55315;BME280;41619;42.816;23.226;2023-02-07T14:51:42;96868.81;;;0.50;46.19
55315;BME280;41619;42.816;23.226;2023-02-07T14:57:29;96865.28;;;0.29;46.84
55315;BME280;41619;42.816;23.226;2023-02-07T15:00:02;96871.91;;;0.01;47.25
55315;BME280;41619;42.816;23.226;2023-02-07T15:02:35;96872.41;;;-0.12;47.81
55315;BME280;41619;42.816;23.226;2023-02-07T15:05:21;96876.38;;;-0.25;47.86
55315;BME280;41619;42.816;23.226;2023-02-07T15:07:53;96874.13;;;-0.38;48.17
55315;BME280;41619;42.816;23.226;2023-02-07T15:10:33;96881.59;;;-0.55;48.24
55315;BME280;41619;42.816;23.226;2023-02-07T15:13:00;96886.34;;;-0.68;47.90
55315;BME280;41619;42.816;23.226;2023-02-07T15:15:27;96881.13;;;-0.79;48.67
55315;BME280;41619;42.816;23.226;2023-02-07T15:17:58;96883.22;;;-0.92;48.82
55315;BME280;41619;42.816;23.226;2023-02-07T15:20:31;96883.38;;;-1.03;48.82